createdAt,value
2018-08-25T00:10:07.463Z,55.8
2018-08-25T00:25:37.118Z,55.2
2018-08-25T00:40:55.171Z,53.4
2018-08-25T00:56:13.061Z,51.9
2018-08-25T01:11:31.174Z,52.8
2018-08-25T01:26:39.964Z,55
2018-08-25T01:42:06.038Z,55.8
2018-08-25T01:57:23.643Z,56.3
2018-08-25T02:12:41.063Z,56.1
2018-08-25T02:27:58.756Z,55.8
2018-08-25T02:43:12.470Z,56.2
2018-08-25T02:58:33.439Z,55.9
2018-08-25T03:13:50.856Z,56.5
2018-08-25T03:29:08.491Z,55.5
2018-08-25T03:44:13.946Z,54.6
2018-08-25T03:59:43.549Z,54.2
2018-08-25T04:15:01.620Z,53.8
2018-08-25T04:30:19.105Z,54.6
2018-08-25T04:45:36.448Z,55
2018-08-25T05:00:45.829Z,58
2018-08-25T05:16:12.131Z,59.8
2018-08-25T05:31:31.553Z,62.2
2018-08-25T05:46:47.904Z,62.8
2018-08-25T06:02:05.701Z,61.9
2018-08-25T06:17:17.813Z,60.7
2018-08-25T06:32:41.675Z,60.8
2018-08-25T06:47:59.880Z,59.9
2018-08-25T07:03:18.095Z,58.5
2018-08-25T07:18:36.850Z,55.9
2018-08-25T07:33:51.007Z,54.5
2018-08-25T07:49:13.825Z,52.7
2018-08-25T08:04:31.733Z,55
2018-08-25T08:19:50.562Z,54.4
2018-08-25T08:34:54.469Z,53.3
2018-08-25T08:50:25.857Z,46.3
2018-08-25T09:05:44.614Z,44.2
2018-08-25T09:21:02.475Z,44.7
2018-08-25T09:36:20.707Z,37
2018-08-25T09:51:31.047Z,31.8
2018-08-25T10:06:57.138Z,27.5
2018-08-25T10:22:16.060Z,26.1
2018-08-25T10:37:34.864Z,26
2018-08-25T10:52:38.756Z,25.6
2018-08-25T11:08:11.449Z,25.4
2018-08-25T11:23:31.912Z,25.9
2018-08-25T11:38:51.033Z,27
2018-08-25T11:54:10.040Z,25.5
2018-08-25T12:09:19.817Z,24.2
2018-08-25T12:24:47.264Z,25.6
2018-08-25T12:40:06.076Z,26.4
2018-08-25T12:55:25.115Z,28.4
2018-08-25T13:10:43.289Z,29.4
2018-08-25T13:25:57.664Z,30.5
2018-08-25T13:41:19.723Z,31.4
2018-08-25T13:56:37.641Z,33.6
2018-08-25T14:11:55.589Z,34.6
2018-08-25T14:27:02.090Z,35.7
2018-08-25T14:42:31.240Z,35
2018-08-25T14:57:48.767Z,37.1
2018-08-25T15:13:06.739Z,37
2018-08-25T15:28:24.648Z,37
2018-08-25T15:43:37.380Z,38
2018-08-25T15:59:00.645Z,38.7
2018-08-25T16:14:18.179Z,39.5
2018-08-25T16:29:35.862Z,40.1
2018-08-25T16:44:40.210Z,39.6
2018-08-25T17:00:11.818Z,39.8
2018-08-25T17:15:28.660Z,40.2
2018-08-25T17:30:45.813Z,40.8
2018-08-25T17:46:03.557Z,41.8
2018-08-25T18:01:13.227Z,41.8
2018-08-25T18:16:38.165Z,42
2018-08-25T18:31:54.931Z,42.1
2018-08-25T18:47:12.123Z,44.1
2018-08-25T19:02:29.346Z,44.6
2018-08-25T19:17:44.426Z,43.4
2018-08-25T19:33:03.027Z,43.9
2018-08-25T19:48:19.704Z,44.2
2018-08-25T20:03:36.049Z,45
2018-08-25T20:18:43.550Z,45
2018-08-25T20:34:09.318Z,44.2
2018-08-25T20:49:25.636Z,42.2
2018-08-25T21:04:42.528Z,42.5
2018-08-25T21:19:58.242Z,44
2018-08-25T21:35:12.173Z,43.5
2018-08-25T21:50:30.959Z,44.5
2018-08-25T22:05:46.999Z,43.3
2018-08-25T22:21:04.063Z,42.8
2018-08-25T22:36:09.643Z,42.1
2018-08-25T22:51:38.005Z,42.6
2018-08-25T23:06:53.931Z,44.7
2018-08-25T23:22:10.454Z,46.4
2018-08-25T23:37:26.225Z,48.7
2018-08-25T23:52:38.031Z,49.5
